Pagrindinis puslapis
METAR-TAF:

METAR-TAF

Oro uostai :

Batam, Indonezija

platuma: 01-07-15N, ilguma: 104-07-07E, Aukštis: 38 m

Dabartinis oras

Ataskaita buvo paskelbta 32 minutes, ne 20:00 UTC
Vėjas 6 kt iš Pietryčių, svyruoja nuo Rytų ir Pietų/Pietvakarių
Temperatūra 28°C
Drėgmė 79%
Slėgis 1012 hPa
Matomumas: 9000 m
Su prošvaistėmis ne aukštis 1700 ft
Apsiniaukę ne aukštis 17000 ft

METAR: WIDD 172000Z AUTO 14006KT 100V200 9000NDV BKN017 OVC170 28/24 Q1012

Laikas: 03:32 (20:32 UTC)

Prognozė

Ataskaita buvo paskelbta 3 valandos ir 32 minutes, ne 17:00 UTC
Prognozė galioja nuo 17 metu 18 UTC su 18 metu 18 UTC
Vėjas 6 kt iš Pietryčių
Matomumas: 9000 m
Mažai debesys ne aukštis 1400 ft

TAF: WIDD 171700Z 1718/1818 14006KT 9000 FEW014

Orai ataskaitas ir orų prognozės (METAR, TAF).

turimą stotys yra geltonos ir raudonos taškus žemėlapyje.

Perkelti pele per norėdami pamatyti stoties vardą.

Tada spustelėkite, norėdami matyti oro stebėjimo ir prognozės.

Norėdami pakeisti žemėlapį: spustelėkite ant žalios mygtukų su juodo kryžiaus žemyn,; žalią mygtuką su brūkšneliu, jei norite nutolinti; arba žalių rodyklių gretimoms žemėlapius.


METAR-TAF: